Arboles, CO (81121)

8:57 PM MST on December 08, 2016 (GMT -0700)
Chimney Rock | | Change Station

Elev 6457 ft 37.20 °N, 107.34 °W | Updated 5 minutes ago

Partly Cloudy
Partly Cloudy
26.6 °F
Feels Like 27 °F
N
0.0
Wind Variable Wind from East
Gusts 0.0 mph

Today
High -- | Low -- °F
--% Chance of Precip.
Yesterday
High -- | Low -- °F
Precip. -- in
Pressure 30.46 in
Visibility 10.0 miles
Clouds Mostly Cloudy 10000 ft
Windchill 27 °F
Dew Point 14 °F
Humidity 60%
Rainfall 0.00 in
Snow Depth Not available.
7:10 AM 4:52 PM
Waxing Gibbous, 70% visible
METAR KDRO 090353Z AUTO 01008KT 10SM BKN100 M03/M12 A3030 RMK AO2 SLP313 T10281122
Pressure 30.46 in
Visibility 10.0 miles
Clouds Mostly Cloudy 10000 ft
Windchill 27 °F
Dew Point 14 °F
Humidity 60%
Rainfall 0.00 in
Snow Depth Not available.
7:10 AM 4:52 PM
Waxing Gibbous, 70% visible
METAR KDRO 090353Z AUTO 01008KT 10SM BKN100 M03/M12 A3030 RMK AO2 SLP313 T10281122

10-Day Weather Forecast

Almanac

Astronomy

Dec. 08, 2016 Rise Set
Actual Time
Civil Twilight
Nautical Twilight
Astronomical Twilight
Moon
Length of Visible Light
Length of Day
Tomorrow will be .
, % of the Moon is Illuminated

Today's Extremes

State Highs State Lows

Community

WunderPhotos

Upload Photos

1,956,370 photos uploaded!

WunderBlog® & News

Nearby

Air Quality

  Air Quality AQ Index Pollutant
Not available.

Snow Depth

Station Depth Elevation

Earthquake Activity

City Distance Mag. Time & Date
Minimum magnitude displayed is 2.5.

Coastal Water Temperatures

Place Temperature

Stations

Nearby Weather Stations

Station Location Temp. Windchill Dew Point Humidity Wind Precip. Elev Updated Type
                   

Watches & Warnings

There are currently no watches in effect.